createdAt,value
2022-12-08T00:01:29.099Z,4.75
2022-12-08T00:03:57.656Z,4.94
2022-12-08T00:06:55.791Z,4.73
2022-12-08T00:09:39.797Z,4.73
2022-12-08T00:12:16.445Z,4.83
2022-12-08T00:14:46.673Z,4.80
2022-12-08T00:17:16.213Z,4.72
2022-12-08T00:19:43.985Z,4.79
2022-12-08T00:22:15.117Z,4.87
2022-12-08T00:24:45.424Z,4.89
2022-12-08T00:27:15.936Z,4.78
2022-12-08T00:29:45.930Z,4.79
2022-12-08T00:32:12.921Z,4.84
2022-12-08T00:34:39.848Z,4.86
2022-12-08T00:37:06.687Z,4.88
2022-12-08T00:39:33.651Z,4.80
2022-12-08T00:42:12.306Z,4.90
2022-12-08T00:44:44.643Z,4.83
2022-12-08T00:47:13.214Z,4.96
2022-12-08T00:49:40.731Z,5.00
2022-12-08T00:52:08.164Z,5.02
2022-12-08T00:54:34.984Z,4.95
2022-12-08T00:57:01.969Z,4.99
2022-12-08T00:59:28.867Z,4.93
2022-12-08T01:01:55.804Z,4.98
2022-12-08T01:04:22.771Z,4.88
2022-12-08T01:06:50.449Z,4.60
2022-12-08T01:09:18.464Z,4.63
2022-12-08T01:11:46.534Z,4.67
2022-12-08T01:14:14.167Z,4.65
2022-12-08T01:16:41.935Z,4.53
2022-12-08T01:19:12.456Z,4.40
2022-12-08T01:21:40.363Z,4.38
2022-12-08T01:24:09.408Z,4.52
2022-12-08T01:26:36.299Z,4.55
2022-12-08T01:29:03.116Z,4.56
2022-12-08T01:31:29.896Z,4.51
2022-12-08T01:33:57.296Z,4.51
2022-12-08T01:36:28.119Z,4.71
2022-12-08T01:38:58.549Z,4.74
2022-12-08T01:41:29.391Z,4.56
2022-12-08T01:44:11.034Z,4.53
2022-12-08T01:46:47.231Z,4.54
2022-12-08T01:49:24.781Z,4.58
2022-12-08T01:52:11.516Z,4.83
2022-12-08T01:54:59.520Z,4.87
2022-12-08T01:57:35.350Z,4.80
2022-12-08T02:00:12.196Z,4.78
2022-12-08T02:03:03.503Z,4.71
2022-12-08T02:05:35.361Z,4.72
2022-12-08T02:08:11.613Z,4.71
2022-12-08T02:10:42.710Z,4.76
2022-12-08T02:13:14.846Z,4.64
2022-12-08T02:16:02.389Z,4.68
2022-12-08T02:19:30.660Z,4.66
2022-12-08T02:22:07.172Z,4.84
2022-12-08T02:24:56.876Z,4.76
2022-12-08T02:28:09.433Z,4.55
2022-12-08T02:30:53.816Z,4.66
2022-12-08T02:34:03.699Z,4.89
2022-12-08T02:36:48.789Z,4.76
2022-12-08T02:39:46.036Z,4.86
2022-12-08T02:42:37.706Z,4.83
2022-12-08T02:45:24.079Z,5.03
2022-12-08T02:47:52.504Z,5.06
2022-12-08T02:50:19.715Z,5.11
2022-12-08T02:52:48.159Z,5.18
2022-12-08T02:55:25.910Z,5.30
2022-12-08T02:58:22.726Z,5.30
2022-12-08T03:01:37.386Z,5.33
2022-12-08T03:04:42.765Z,5.10
2022-12-08T03:07:29.348Z,5.04
2022-12-08T03:10:21.832Z,5.09
2022-12-08T03:13:06.515Z,5.19
2022-12-08T03:15:36.058Z,5.22
2022-12-08T03:18:05.825Z,5.30
2022-12-08T03:20:34.561Z,5.36
2022-12-08T03:23:06.472Z,5.29
2022-12-08T03:25:37.910Z,5.22
2022-12-08T03:28:06.034Z,5.17
2022-12-08T03:30:37.381Z,5.17
2022-12-08T03:33:07.479Z,5.29
2022-12-08T03:35:37.814Z,5.36
2022-12-08T03:38:09.039Z,5.40
2022-12-08T03:40:35.971Z,5.46
2022-12-08T03:43:03.369Z,5.51
2022-12-08T03:45:30.801Z,5.61
2022-12-08T03:47:58.407Z,5.65
2022-12-08T03:50:25.446Z,5.65
2022-12-08T03:52:52.293Z,5.58
2022-12-08T03:55:19.803Z,5.41
2022-12-08T03:57:46.607Z,5.48
2022-12-08T04:00:17.166Z,5.57
2022-12-08T04:02:44.254Z,5.55
2022-12-08T04:05:11.148Z,5.64
2022-12-08T04:07:38.021Z,5.51
2022-12-08T04:10:06.146Z,5.64
2022-12-08T04:12:33.113Z,5.57
2022-12-08T04:15:00.016Z,5.49
2022-12-08T04:17:27.646Z,5.38
2022-12-08T04:19:54.475Z,5.37
2022-12-08T04:22:21.394Z,5.40
2022-12-08T04:24:48.375Z,5.25
2022-12-08T04:27:15.277Z,5.24
2022-12-08T04:29:42.093Z,5.10
2022-12-08T04:32:09.026Z,5.20
2022-12-08T04:34:35.889Z,5.28
2022-12-08T04:37:02.725Z,5.29
2022-12-08T04:39:29.580Z,5.26
2022-12-08T04:41:56.458Z,5.11
2022-12-08T04:44:23.280Z,5.16
2022-12-08T04:46:50.118Z,5.08
2022-12-08T04:49:17.000Z,4.98
2022-12-08T04:51:43.868Z,5.01
2022-12-08T04:54:10.734Z,4.89
2022-12-08T04:56:38.289Z,4.82
2022-12-08T04:59:05.130Z,4.83
2022-12-08T05:01:32.129Z,4.78
2022-12-08T05:03:59.151Z,4.85
2022-12-08T05:06:26.018Z,4.83
2022-12-08T05:08:52.824Z,4.82
2022-12-08T05:11:19.729Z,4.85
2022-12-08T05:13:46.961Z,4.80
2022-12-08T05:16:15.940Z,4.72
2022-12-08T05:18:43.274Z,4.68
2022-12-08T05:21:10.495Z,4.69
2022-12-08T05:23:37.430Z,4.67
2022-12-08T05:26:04.394Z,4.58
2022-12-08T05:28:46.858Z,4.56
2022-12-08T05:31:16.534Z,4.69
2022-12-08T05:33:45.426Z,4.58
2022-12-08T05:36:14.750Z,4.57
2022-12-08T05:38:42.222Z,4.54
2022-12-08T05:41:10.852Z,4.55
2022-12-08T05:43:37.697Z,4.46
2022-12-08T05:46:05.506Z,4.59
2022-12-08T05:48:32.776Z,4.49
2022-12-08T05:50:59.766Z,4.45
2022-12-08T05:53:26.869Z,4.54
2022-12-08T05:55:53.987Z,4.58
2022-12-08T05:58:23.041Z,4.67
2022-12-08T06:00:51.168Z,4.70
2022-12-08T06:03:19.644Z,4.70
2022-12-08T06:05:47.975Z,4.70
2022-12-08T06:08:14.978Z,4.63
2022-12-08T06:10:43.919Z,4.57
2022-12-08T06:13:10.910Z,4.64
2022-12-08T06:15:38.989Z,4.67
2022-12-08T06:18:06.944Z,4.64
2022-12-08T06:20:35.357Z,4.48
2022-12-08T06:23:03.419Z,4.62
2022-12-08T06:25:30.238Z,4.54
2022-12-08T06:27:57.071Z,4.49
2022-12-08T06:30:24.064Z,4.32
2022-12-08T06:32:50.892Z,4.44
2022-12-08T06:35:17.763Z,4.31
2022-12-08T06:37:48.169Z,4.41
2022-12-08T06:40:15.035Z,4.36
2022-12-08T06:42:44.559Z,4.25
2022-12-08T06:45:14.890Z,4.39
2022-12-08T06:47:42.368Z,4.30
2022-12-08T06:50:11.069Z,4.25
2022-12-08T06:52:46.754Z,4.32
2022-12-08T06:55:35.277Z,4.30
2022-12-08T06:58:03.481Z,4.21
2022-12-08T07:00:30.413Z,4.24
2022-12-08T07:02:57.361Z,4.12
2022-12-08T07:05:24.348Z,4.15
2022-12-08T07:07:51.293Z,4.05
2022-12-08T07:10:18.282Z,4.00
2022-12-08T07:12:45.755Z,4.04
2022-12-08T07:15:12.606Z,3.99
2022-12-08T07:17:39.494Z,4.06
2022-12-08T07:20:07.640Z,3.96
2022-12-08T07:22:35.206Z,4.09
2022-12-08T07:25:02.087Z,3.96
2022-12-08T07:27:29.041Z,4.11
2022-12-08T07:29:55.910Z,4.07
2022-12-08T07:32:22.831Z,4.10
2022-12-08T07:34:49.625Z,4.05
2022-12-08T07:37:16.409Z,4.08
2022-12-08T07:39:43.261Z,4.17
2022-12-08T07:42:10.097Z,4.19
2022-12-08T07:44:36.899Z,4.38
2022-12-08T07:47:03.818Z,4.36
2022-12-08T07:49:30.643Z,4.42
2022-12-08T07:51:57.450Z,4.38
2022-12-08T07:54:24.267Z,4.40
2022-12-08T07:56:51.168Z,4.46
2022-12-08T07:59:18.053Z,4.59
2022-12-08T08:01:45.700Z,4.57
2022-12-08T08:04:12.746Z,4.50
2022-12-08T08:06:39.640Z,4.47
2022-12-08T08:09:06.580Z,4.63
2022-12-08T08:11:33.464Z,4.61
2022-12-08T08:14:00.292Z,4.55
2022-12-08T08:16:28.473Z,4.58
2022-12-08T08:18:56.916Z,4.60
2022-12-08T08:24:10.645Z,4.72
2022-12-08T08:26:37.592Z,4.57
2022-12-08T08:29:04.419Z,4.48
2022-12-08T08:31:31.316Z,4.75
2022-12-08T08:33:58.216Z,4.76
2022-12-08T08:36:34.275Z,4.87
2022-12-08T08:39:01.139Z,4.88
2022-12-08T08:41:27.997Z,5.02
2022-12-08T08:43:55.211Z,5.09
2022-12-08T08:46:22.145Z,5.00
2022-12-08T08:48:49.019Z,5.26
2022-12-08T08:51:15.880Z,5.24
2022-12-08T08:53:43.419Z,5.11
2022-12-08T08:56:15.638Z,5.25
2022-12-08T08:58:42.561Z,5.35
2022-12-08T09:01:09.368Z,5.28
2022-12-08T09:03:36.367Z,5.30
2022-12-08T09:06:03.306Z,5.43
2022-12-08T09:08:30.290Z,5.60
2022-12-08T09:10:57.171Z,5.57
2022-12-08T09:13:24.074Z,5.56
2022-12-08T09:15:51.050Z,5.50
2022-12-08T09:18:18.233Z,5.58
2022-12-08T09:20:45.188Z,5.40
2022-12-08T09:23:12.017Z,5.54
2022-12-08T09:25:44.823Z,5.73
2022-12-08T09:28:12.986Z,5.95
2022-12-08T09:30:40.566Z,5.92
2022-12-08T09:33:07.433Z,6.03
2022-12-08T09:35:34.290Z,6.18
2022-12-08T09:38:01.168Z,5.99
2022-12-08T09:40:30.779Z,6.25
2022-12-08T09:43:33.205Z,6.37
2022-12-08T09:46:01.887Z,6.42
2022-12-08T09:48:41.363Z,6.35
2022-12-08T09:51:09.606Z,6.23
2022-12-08T09:53:45.990Z,6.32
2022-12-08T09:56:18.915Z,6.21
2022-12-08T09:59:09.136Z,6.68
2022-12-08T10:01:41.560Z,6.88
2022-12-08T10:04:24.713Z,7.23
2022-12-08T10:07:04.660Z,7.51
2022-12-08T10:09:40.391Z,7.64
2022-12-08T10:12:32.463Z,8.00
2022-12-08T10:15:36.007Z,7.89
2022-12-08T10:18:12.312Z,7.69
2022-12-08T10:20:44.068Z,7.83
2022-12-08T10:23:27.751Z,7.90
2022-12-08T10:26:01.909Z,7.80
2022-12-08T10:28:28.811Z,7.72
2022-12-08T10:30:55.850Z,7.48
2022-12-08T10:33:23.782Z,7.41
2022-12-08T10:35:56.516Z,7.63
2022-12-08T10:38:36.580Z,7.44
2022-12-08T10:41:09.487Z,7.74
2022-12-08T10:43:48.984Z,8.17
2022-12-08T10:46:17.581Z,8.04
2022-12-08T10:49:07.624Z,8.10
2022-12-08T10:51:34.347Z,7.87
2022-12-08T10:54:01.950Z,7.89
2022-12-08T10:56:32.573Z,8.10
2022-12-08T10:59:19.144Z,7.88
2022-12-08T11:01:49.316Z,7.30
2022-12-08T11:04:34.715Z,7.54
2022-12-08T11:07:03.128Z,7.84
2022-12-08T11:09:40.315Z,8.11
2022-12-08T11:12:16.126Z,8.24
2022-12-08T11:14:42.816Z,8.10
2022-12-08T11:17:15.122Z,8.07
2022-12-08T11:20:08.731Z,8.21
2022-12-08T11:22:40.826Z,8.15
2022-12-08T11:25:07.552Z,7.58
2022-12-08T11:27:37.378Z,7.45
2022-12-08T11:30:17.958Z,7.29
2022-12-08T11:32:53.278Z,7.32
2022-12-08T11:35:31.347Z,7.19
2022-12-08T11:38:20.418Z,7.20
2022-12-08T11:40:52.705Z,7.23
2022-12-08T11:43:50.356Z,7.11
2022-12-08T11:46:56.525Z,7.07
2022-12-08T11:49:36.423Z,6.88
2022-12-08T11:52:14.617Z,6.88
2022-12-08T11:54:59.770Z,7.00
2022-12-08T11:57:28.848Z,7.01
2022-12-08T11:59:58.294Z,6.78
2022-12-08T12:02:29.691Z,6.70
2022-12-08T12:05:08.991Z,6.62
2022-12-08T12:08:04.980Z,6.76
2022-12-08T12:10:41.346Z,6.57
2022-12-08T12:13:52.010Z,6.70
2022-12-08T12:16:49.852Z,6.65
2022-12-08T12:19:20.834Z,6.76
2022-12-08T12:21:56.071Z,6.91
2022-12-08T12:24:35.935Z,6.78
2022-12-08T12:27:15.183Z,7.05
2022-12-08T12:29:55.998Z,7.24
2022-12-08T12:32:24.814Z,6.96
2022-12-08T12:34:56.238Z,7.00
2022-12-08T12:37:43.497Z,7.05
2022-12-08T12:40:18.037Z,6.96
2022-12-08T12:43:09.718Z,7.01
2022-12-08T12:45:43.689Z,7.07
2022-12-08T12:48:19.931Z,6.78
2022-12-08T12:50:50.010Z,6.88
2022-12-08T12:53:16.721Z,6.93
2022-12-08T12:55:52.293Z,7.01
2022-12-08T12:58:28.353Z,7.03
2022-12-08T13:01:10.513Z,7.07
2022-12-08T13:03:41.359Z,6.89
2022-12-08T13:06:14.619Z,6.98
2022-12-08T13:08:52.706Z,6.93
2022-12-08T13:11:20.176Z,6.86
2022-12-08T13:14:04.877Z,7.15
2022-12-08T13:16:39.883Z,7.24
2022-12-08T13:19:16.093Z,7.28
2022-12-08T13:22:04.345Z,7.33
2022-12-08T13:24:34.928Z,7.33
2022-12-08T13:27:04.748Z,7.30
2022-12-08T13:29:37.304Z,7.31
2022-12-08T13:33:17.153Z,7.23
2022-12-08T13:35:54.978Z,6.93
2022-12-08T13:38:26.724Z,6.90
2022-12-08T13:40:55.901Z,6.84
2022-12-08T13:44:24.829Z,6.65
2022-12-08T13:58:35.464Z,6.39
2022-12-08T14:01:11.554Z,6.12
2022-12-08T14:06:58.619Z,5.96
2022-12-08T14:09:35.556Z,6.02
2022-12-08T14:12:17.735Z,6.07
2022-12-08T14:15:04.989Z,6.04
2022-12-08T14:17:33.017Z,6.12
2022-12-08T14:20:11.915Z,6.04
2022-12-08T14:22:41.084Z,6.02
2022-12-08T14:25:15.456Z,5.96
2022-12-08T14:27:42.752Z,6.08
2022-12-08T14:30:15.095Z,6.00
2022-12-08T14:32:53.737Z,6.04
2022-12-08T14:35:23.144Z,6.06
2022-12-08T14:37:58.498Z,5.91
2022-12-08T14:40:35.643Z,5.85
2022-12-08T14:43:07.911Z,5.63
2022-12-08T14:45:41.369Z,5.70
2022-12-08T14:48:36.264Z,5.66
2022-12-08T14:51:18.786Z,5.64
2022-12-08T14:54:02.238Z,5.62
2022-12-08T14:56:53.104Z,5.61
2022-12-08T14:59:26.390Z,5.36
2022-12-08T15:02:30.018Z,5.46
2022-12-08T15:05:11.272Z,5.39
2022-12-08T15:07:54.555Z,5.22
2022-12-08T15:10:30.756Z,5.18
2022-12-08T15:13:07.349Z,5.25
2022-12-08T15:15:56.757Z,5.32
2022-12-08T15:18:39.480Z,5.38
2022-12-08T15:21:09.736Z,5.30
2022-12-08T15:23:44.674Z,5.20
2022-12-08T15:26:26.656Z,5.27
2022-12-08T15:28:54.597Z,5.26
2022-12-08T15:31:21.750Z,5.33
2022-12-08T15:33:48.712Z,5.35
2022-12-08T15:36:15.605Z,5.39
2022-12-08T15:38:43.600Z,5.41
2022-12-08T15:41:14.942Z,5.21
2022-12-08T15:43:42.367Z,5.33
2022-12-08T15:46:09.284Z,5.22
2022-12-08T15:48:38.024Z,5.39
2022-12-08T15:51:05.038Z,5.19
2022-12-08T15:53:31.855Z,5.13
2022-12-08T15:58:55.720Z,5.23
2022-12-08T16:01:24.225Z,5.24
2022-12-08T16:09:39.493Z,5.24
2022-12-08T16:13:13.510Z,5.37
2022-12-08T16:15:50.182Z,5.18
2022-12-08T16:18:15.065Z,5.16
2022-12-08T16:23:45.947Z,5.17
2022-12-08T16:29:07.127Z,5.24
2022-12-08T16:31:34.035Z,5.37
2022-12-08T16:34:01.122Z,5.30
2022-12-08T16:36:27.933Z,5.37
2022-12-08T16:38:54.777Z,5.23
2022-12-08T16:41:39.791Z,5.28
2022-12-08T16:44:06.772Z,5.28
2022-12-08T16:46:34.743Z,5.24
2022-12-08T16:49:01.592Z,5.29
2022-12-08T16:51:28.491Z,5.20
2022-12-08T16:53:57.006Z,5.23
2022-12-08T16:56:28.949Z,5.35
2022-12-08T16:58:58.995Z,5.34
2022-12-08T17:01:25.980Z,5.23
2022-12-08T17:04:22.579Z,5.45
2022-12-08T17:06:40.367Z,5.36
2022-12-08T17:09:07.183Z,5.26
2022-12-08T17:11:40.754Z,5.23
2022-12-08T17:14:09.758Z,5.22
2022-12-08T17:16:36.628Z,5.31
2022-12-08T17:19:03.797Z,5.37
2022-12-08T17:21:30.639Z,5.39
2022-12-08T17:23:57.540Z,5.39
2022-12-08T17:26:24.654Z,5.28
2022-12-08T17:29:00.557Z,5.31
2022-12-08T17:31:30.382Z,5.29
2022-12-08T17:34:02.569Z,5.40
2022-12-08T17:36:29.611Z,5.48
2022-12-08T17:38:59.728Z,5.37
2022-12-08T17:41:26.756Z,5.31
2022-12-08T17:43:53.603Z,5.45
2022-12-08T17:46:21.761Z,5.40
2022-12-08T17:48:48.671Z,5.38
2022-12-08T17:51:16.082Z,5.39
2022-12-08T17:53:43.298Z,5.37
2022-12-08T17:56:17.844Z,5.32
2022-12-08T17:58:45.673Z,5.19
2022-12-08T18:01:14.633Z,5.26
2022-12-08T18:03:41.482Z,5.07
2022-12-08T18:06:11.196Z,5.18
2022-12-08T18:08:39.225Z,5.10
2022-12-08T18:11:15.010Z,5.04
2022-12-08T18:13:42.314Z,5.02
2022-12-08T18:16:09.297Z,5.08
2022-12-08T18:18:36.173Z,5.16
2022-12-08T18:21:03.090Z,5.02
2022-12-08T18:23:29.886Z,5.01
2022-12-08T18:25:56.802Z,5.12
2022-12-08T18:28:24.189Z,5.07
2022-12-08T18:30:51.237Z,4.94
2022-12-08T18:33:18.145Z,4.97
2022-12-08T18:35:44.997Z,5.00
2022-12-08T18:38:11.899Z,5.11
2022-12-08T18:40:39.124Z,5.07
2022-12-08T18:43:06.074Z,5.03
2022-12-08T18:45:33.730Z,5.10
2022-12-08T18:48:00.585Z,4.99
2022-12-08T18:50:27.441Z,5.03
2022-12-08T18:52:54.578Z,5.15
2022-12-08T18:55:21.400Z,5.23
2022-12-08T18:57:48.385Z,5.19
2022-12-08T19:00:18.112Z,5.29
2022-12-08T19:02:45.419Z,5.10
2022-12-08T19:05:13.878Z,4.92
2022-12-08T19:07:42.642Z,4.99
2022-12-08T19:10:10.633Z,5.06
2022-12-08T19:12:37.610Z,5.11
2022-12-08T19:15:05.597Z,5.16
2022-12-08T19:17:32.898Z,5.20
2022-12-08T19:19:59.887Z,5.16
2022-12-08T19:22:26.724Z,5.16
2022-12-08T19:24:53.557Z,5.20
2022-12-08T19:27:20.433Z,5.08
2022-12-08T19:29:47.432Z,5.08
2022-12-08T19:32:14.373Z,5.06
2022-12-08T19:34:41.383Z,4.97
2022-12-08T19:37:10.281Z,5.02
2022-12-08T19:39:55.564Z,5.10
2022-12-08T19:42:40.923Z,5.14
2022-12-08T19:45:16.339Z,5.07
2022-12-08T19:47:43.581Z,5.07
2022-12-08T19:50:31.502Z,4.90
2022-12-08T19:52:58.744Z,5.00
2022-12-08T19:55:25.932Z,5.07
2022-12-08T19:57:54.245Z,4.91
2022-12-08T20:00:21.663Z,4.78
2022-12-08T20:02:48.687Z,4.81
2022-12-08T20:05:16.029Z,4.79
2022-12-08T20:07:43.084Z,4.99
2022-12-08T20:10:25.280Z,4.65
2022-12-08T20:13:12.064Z,4.89
2022-12-08T20:15:39.005Z,4.98
2022-12-08T20:18:06.492Z,4.92
2022-12-08T20:20:33.446Z,4.89
2022-12-08T20:23:00.302Z,4.83
2022-12-08T20:25:27.182Z,4.94
2022-12-08T20:27:54.035Z,5.07
2022-12-08T20:30:20.999Z,5.03
2022-12-08T20:32:47.861Z,5.10
2022-12-08T20:35:15.735Z,5.01
2022-12-08T20:37:42.932Z,5.10
2022-12-08T20:40:10.209Z,5.01
2022-12-08T20:42:37.090Z,4.95
2022-12-08T20:45:07.176Z,5.07
2022-12-08T20:47:34.638Z,5.11
2022-12-08T20:50:05.083Z,5.02
2022-12-08T20:52:32.521Z,5.03
2022-12-08T20:54:59.416Z,5.01
2022-12-08T20:57:26.525Z,4.97
2022-12-08T20:59:53.408Z,4.81
2022-12-08T21:02:20.371Z,4.97
2022-12-08T21:04:47.815Z,4.76
2022-12-08T21:07:14.777Z,4.71
2022-12-08T21:09:41.867Z,4.71
2022-12-08T21:12:09.035Z,4.50
2022-12-08T21:14:36.245Z,4.70
2022-12-08T21:17:04.476Z,4.73
2022-12-08T21:19:31.576Z,4.71
2022-12-08T21:21:58.600Z,4.75
2022-12-08T21:24:28.908Z,4.87
2022-12-08T21:27:00.530Z,4.78
2022-12-08T21:29:27.442Z,4.79
2022-12-08T21:31:57.262Z,4.92
2022-12-08T21:34:25.473Z,5.03
2022-12-08T21:36:53.156Z,4.96
2022-12-08T21:39:20.447Z,4.88
2022-12-08T21:42:05.908Z,4.84
2022-12-08T21:44:35.390Z,5.01
2022-12-08T21:47:03.596Z,5.01
2022-12-08T21:49:30.530Z,5.01
2022-12-08T21:51:57.878Z,4.95
2022-12-08T21:54:24.993Z,5.04
2022-12-08T21:56:51.979Z,4.91
2022-12-08T21:59:19.783Z,4.85
2022-12-08T22:01:47.392Z,4.94
2022-12-08T22:04:18.996Z,4.91
2022-12-08T22:06:46.052Z,5.03
2022-12-08T22:09:15.213Z,4.80
2022-12-08T22:11:43.532Z,4.90
2022-12-08T22:14:14.391Z,4.93
2022-12-08T22:16:43.058Z,4.91
2022-12-08T22:19:10.363Z,4.96
2022-12-08T22:21:38.211Z,4.91
2022-12-08T22:24:05.762Z,4.92
2022-12-08T22:26:32.710Z,4.98
2022-12-08T22:29:00.125Z,5.03
2022-12-08T22:31:42.546Z,4.88
2022-12-08T22:34:09.922Z,4.94
2022-12-08T22:36:36.842Z,4.80
2022-12-08T22:39:04.699Z,4.85
2022-12-08T22:41:31.611Z,4.78
2022-12-08T22:43:58.434Z,4.74
2022-12-08T22:46:27.259Z,4.80
2022-12-08T22:48:54.801Z,4.73
2022-12-08T22:51:21.951Z,4.82
2022-12-08T22:53:48.967Z,4.84
2022-12-08T22:56:17.239Z,4.84
2022-12-08T22:58:44.485Z,4.81
2022-12-08T23:01:29.144Z,4.84
2022-12-08T23:03:56.999Z,4.80
2022-12-08T23:06:26.052Z,4.86
2022-12-08T23:08:53.414Z,4.88
2022-12-08T23:11:23.495Z,4.92
2022-12-08T23:13:50.352Z,4.85
2022-12-08T23:16:17.367Z,4.88
2022-12-08T23:18:46.510Z,4.89
2022-12-08T23:21:19.376Z,4.72
2022-12-08T23:23:47.258Z,4.73
2022-12-08T23:26:27.401Z,4.77
2022-12-08T23:28:55.663Z,4.68
2022-12-08T23:31:23.566Z,4.70
2022-12-08T23:33:51.552Z,4.73
2022-12-08T23:36:20.409Z,4.68
2022-12-08T23:38:48.977Z,4.54
2022-12-08T23:41:16.790Z,4.59
2022-12-08T23:43:46.363Z,4.62
2022-12-08T23:46:14.608Z,4.53
2022-12-08T23:48:41.683Z,4.47
2022-12-08T23:51:08.780Z,4.52
2022-12-08T23:53:36.107Z,4.46
2022-12-08T23:56:07.282Z,4.39
2022-12-08T23:58:34.973Z,4.44
